createdAt,value
2023-03-25T00:02:30.510Z,11.40
2023-03-25T00:05:23.180Z,11.40
2023-03-25T00:08:14.738Z,11.30
2023-03-25T00:13:48.662Z,11.10
2023-03-25T00:16:40.006Z,11.10
2023-03-25T00:19:32.249Z,11.20
2023-03-25T00:22:24.214Z,11.30
2023-03-25T00:25:19.543Z,11.30
2023-03-25T00:28:11.087Z,11.30
2023-03-25T00:31:05.464Z,11.40
2023-03-25T00:33:58.228Z,11.30
2023-03-25T00:36:49.365Z,11.20
2023-03-25T00:39:40.765Z,11.20
2023-03-25T00:42:32.316Z,11.20
2023-03-25T00:45:23.866Z,11.20
2023-03-25T00:48:15.297Z,11.20
2023-03-25T00:51:10.063Z,11.30
2023-03-25T00:54:02.258Z,11.30
2023-03-25T00:56:56.247Z,11.20
2023-03-25T00:59:47.621Z,11.20
2023-03-25T01:05:24.263Z,11.20
2023-03-25T01:08:15.270Z,11.20
2023-03-25T01:11:07.266Z,11.30
2023-03-25T01:14:00.125Z,11.40
2023-03-25T01:16:51.473Z,11.40
2023-03-25T01:19:42.716Z,11.40
2023-03-25T01:22:34.304Z,11.30
2023-03-25T01:25:25.418Z,11.20
2023-03-25T01:28:16.669Z,11.10
2023-03-25T01:31:09.972Z,11.10
2023-03-25T01:34:02.187Z,11.10
2023-03-25T01:36:55.164Z,11.10
2023-03-25T01:39:47.143Z,11.10
2023-03-25T01:42:38.550Z,11.00
2023-03-25T01:45:32.939Z,10.90
2023-03-25T01:48:27.280Z,10.80
2023-03-25T01:51:22.094Z,10.70
2023-03-25T01:54:17.345Z,10.70
2023-03-25T01:57:10.230Z,10.80
2023-03-25T02:00:03.252Z,10.80
2023-03-25T02:02:59.370Z,10.80
2023-03-25T02:05:54.853Z,10.80
2023-03-25T02:08:47.346Z,10.70
2023-03-25T02:11:38.605Z,10.80
2023-03-25T02:17:13.119Z,10.80
2023-03-25T02:20:29.411Z,10.80
2023-03-25T02:29:39.141Z,10.90
2023-03-25T02:32:57.713Z,10.90
2023-03-25T02:36:12.595Z,10.90
2023-03-25T02:39:07.534Z,10.90
2023-03-25T02:42:01.842Z,10.90
2023-03-25T02:44:56.811Z,10.90
2023-03-25T02:47:51.885Z,11.00
2023-03-25T02:50:46.935Z,11.10
2023-03-25T02:53:41.193Z,11.20
2023-03-25T02:56:33.838Z,11.20
2023-03-25T02:59:28.669Z,11.20
2023-03-25T03:02:25.823Z,11.10
2023-03-25T03:05:29.573Z,11.20
2023-03-25T03:08:29.225Z,11.10
2023-03-25T03:11:23.173Z,11.10
2023-03-25T03:14:26.558Z,11.20
2023-03-25T03:20:02.321Z,11.00
2023-03-25T03:22:56.484Z,10.80
2023-03-25T03:25:52.280Z,10.60
2023-03-25T03:28:47.015Z,10.70
2023-03-25T03:31:48.271Z,10.80
2023-03-25T03:34:39.313Z,10.80
2023-03-25T03:37:33.700Z,10.80
2023-03-25T03:40:27.237Z,10.80
2023-03-25T03:43:20.805Z,10.70
2023-03-25T03:46:15.557Z,10.80
2023-03-25T03:49:10.130Z,10.80
2023-03-25T03:52:08.787Z,10.70
2023-03-25T03:55:00.806Z,10.70
2023-03-25T03:57:55.182Z,10.70
2023-03-25T04:00:50.762Z,10.80
2023-03-25T04:03:45.003Z,10.70
2023-03-25T04:06:42.264Z,10.70
2023-03-25T04:09:38.296Z,10.70
2023-03-25T04:15:11.582Z,10.80
2023-03-25T04:18:03.894Z,10.60
2023-03-25T04:20:55.522Z,10.50
2023-03-25T04:23:47.041Z,10.50
2023-03-25T04:26:38.926Z,10.40
2023-03-25T04:32:14.706Z,10.30
2023-03-25T04:35:06.161Z,10.30
2023-03-25T04:37:57.804Z,10.20
2023-03-25T04:40:49.406Z,10.10
2023-03-25T04:43:40.603Z,10.20
2023-03-25T04:46:32.097Z,10.10
2023-03-25T04:49:25.238Z,10.10
2023-03-25T04:52:17.513Z,10.10
2023-03-25T04:55:10.709Z,10.10
2023-03-25T04:58:02.024Z,10.00
2023-03-25T05:00:54.875Z,9.90
2023-03-25T05:03:48.193Z,9.80
2023-03-25T05:06:42.965Z,9.80
2023-03-25T05:09:34.443Z,9.90
2023-03-25T05:12:25.834Z,9.90
2023-03-25T05:15:18.165Z,9.90
2023-03-25T05:18:12.795Z,9.90
2023-03-25T05:21:05.402Z,9.90
2023-03-25T05:23:58.468Z,9.90
2023-03-25T05:26:50.030Z,9.90
2023-03-25T05:29:43.302Z,9.90
2023-03-25T05:32:34.132Z,9.90
2023-03-25T05:35:26.842Z,9.90
2023-03-25T05:38:19.198Z,9.80
2023-03-25T05:41:10.873Z,9.80
2023-03-25T05:44:03.076Z,9.80
2023-03-25T05:46:54.389Z,9.70
2023-03-25T05:49:46.168Z,9.70
2023-03-25T05:52:37.647Z,9.60
2023-03-25T05:55:29.551Z,9.60
2023-03-25T05:58:20.869Z,9.50
2023-03-25T06:01:25.826Z,9.60
2023-03-25T06:04:10.650Z,9.70
2023-03-25T06:07:03.727Z,9.80
2023-03-25T06:09:56.048Z,9.90
2023-03-25T06:12:49.195Z,10.00
2023-03-25T06:15:42.020Z,9.90
2023-03-25T06:18:33.486Z,9.90
2023-03-25T06:21:26.627Z,9.80
2023-03-25T06:24:18.597Z,9.70
2023-03-25T06:27:12.323Z,9.80
2023-03-25T06:30:05.334Z,9.80
2023-03-25T06:32:57.599Z,9.80
2023-03-25T06:35:52.660Z,9.80
2023-03-25T06:38:44.256Z,9.80
2023-03-25T06:44:33.988Z,9.60
2023-03-25T06:47:43.913Z,9.70
2023-03-25T06:50:35.413Z,9.90
2023-03-25T06:53:26.611Z,10.00
2023-03-25T06:56:18.677Z,10.00
2023-03-25T06:59:09.743Z,10.10
2023-03-25T07:02:00.947Z,10.10
2023-03-25T07:04:52.240Z,10.20
2023-03-25T07:07:43.730Z,10.30
2023-03-25T07:10:35.154Z,10.40
2023-03-25T07:13:27.110Z,10.60
2023-03-25T07:16:18.382Z,10.80
2023-03-25T07:19:09.699Z,10.90
2023-03-25T07:22:01.099Z,11.10
2023-03-25T07:24:53.086Z,11.30
2023-03-25T07:27:44.203Z,11.30
2023-03-25T07:30:37.155Z,11.40
2023-03-25T07:33:28.502Z,11.40
2023-03-25T07:36:21.751Z,11.40
2023-03-25T07:39:13.035Z,11.40
2023-03-25T07:42:04.661Z,11.50
2023-03-25T07:44:57.262Z,11.50
2023-03-25T07:47:50.498Z,11.50
2023-03-25T07:50:42.154Z,11.40
2023-03-25T07:56:14.742Z,11.50
2023-03-25T08:16:03.066Z,11.80
2023-03-25T08:24:25.198Z,12.40
2023-03-25T08:27:16.559Z,12.50
2023-03-25T08:30:10.750Z,12.60
2023-03-25T08:33:01.777Z,12.70
2023-03-25T08:35:53.490Z,12.70
2023-03-25T08:41:24.634Z,12.90
2023-03-25T08:44:15.724Z,12.80
2023-03-25T08:49:49.806Z,12.80
2023-03-25T08:55:18.781Z,12.90
2023-03-25T08:58:10.024Z,12.90
2023-03-25T09:01:01.355Z,13.10
2023-03-25T09:03:53.228Z,13.20
2023-03-25T09:06:48.051Z,13.30
2023-03-25T09:09:37.603Z,13.40
2023-03-25T09:15:11.635Z,13.50
2023-03-25T09:18:02.643Z,13.70
2023-03-25T09:20:53.741Z,13.80
2023-03-25T09:23:45.022Z,13.70
2023-03-25T09:26:37.851Z,13.60
2023-03-25T09:29:29.710Z,13.80
2023-03-25T09:32:20.852Z,13.80
2023-03-25T09:35:12.074Z,13.80
2023-03-25T09:38:14.316Z,13.90
2023-03-25T09:41:15.442Z,14.00
2023-03-25T09:44:12.230Z,13.90
2023-03-25T09:47:06.064Z,13.90
2023-03-25T09:52:42.485Z,14.10
2023-03-25T09:55:36.467Z,14.10
2023-03-25T10:01:33.854Z,14.40
2023-03-25T10:10:04.217Z,14.50
2023-03-25T10:15:38.389Z,14.30
2023-03-25T10:18:40.991Z,14.30
2023-03-25T10:21:36.081Z,14.30
2023-03-25T10:24:29.963Z,14.50
2023-03-25T10:30:02.748Z,14.80
2023-03-25T10:32:57.891Z,14.90
2023-03-25T10:36:10.644Z,15.00
2023-03-25T10:39:19.844Z,15.00
2023-03-25T10:44:57.455Z,15.20
2023-03-25T10:50:28.093Z,15.10
2023-03-25T10:53:24.371Z,15.00
2023-03-25T10:56:18.600Z,14.90
2023-03-25T11:05:18.947Z,15.30
2023-03-25T11:08:23.783Z,15.20
2023-03-25T11:11:08.462Z,15.20
2023-03-25T11:13:59.469Z,15.30
2023-03-25T11:16:55.682Z,15.40
2023-03-25T11:19:50.262Z,15.40
2023-03-25T11:25:24.318Z,15.50
2023-03-25T11:28:21.210Z,15.60
2023-03-25T11:31:16.216Z,15.50
2023-03-25T11:34:12.155Z,15.50
2023-03-25T11:37:05.447Z,15.30
2023-03-25T11:42:40.560Z,15.60
2023-03-25T11:45:35.734Z,15.80
2023-03-25T11:48:30.529Z,16.10
2023-03-25T11:51:25.672Z,16.20
2023-03-25T11:54:19.427Z,16.30
2023-03-25T12:00:01.792Z,16.50
2023-03-25T12:05:36.131Z,16.60
2023-03-25T12:11:10.476Z,16.80
2023-03-25T12:20:07.335Z,17.10
2023-03-25T12:23:06.394Z,17.10
2023-03-25T12:29:00.170Z,17.20
2023-03-25T12:31:59.339Z,17.10
2023-03-25T12:34:57.205Z,17.00
2023-03-25T12:37:57.539Z,17.00
2023-03-25T12:40:55.059Z,17.30
2023-03-25T12:43:56.028Z,17.40
2023-03-25T12:50:06.688Z,17.60
2023-03-25T12:53:02.116Z,17.80
2023-03-25T12:56:00.892Z,17.70
2023-03-25T12:59:21.583Z,17.70
2023-03-25T13:07:48.802Z,17.80
2023-03-25T13:10:42.630Z,17.90
2023-03-25T13:13:36.012Z,17.80
2023-03-25T13:16:30.365Z,17.60
2023-03-25T13:19:24.430Z,17.60
2023-03-25T13:24:59.293Z,17.40
2023-03-25T13:30:35.013Z,17.50
2023-03-25T13:33:29.792Z,17.60
2023-03-25T13:36:24.311Z,17.60
2023-03-25T13:39:17.883Z,17.50
2023-03-25T13:42:13.426Z,17.50
2023-03-25T13:45:06.559Z,17.50
2023-03-25T13:48:01.988Z,17.40
2023-03-25T13:50:53.178Z,17.40
2023-03-25T14:00:27.164Z,17.20
2023-03-25T14:03:46.077Z,17.30
2023-03-25T14:07:04.174Z,17.30
2023-03-25T14:10:26.542Z,17.30
2023-03-25T14:16:04.251Z,17.50
2023-03-25T14:18:59.280Z,17.60
2023-03-25T14:21:52.425Z,17.80
2023-03-25T14:24:45.076Z,17.90
2023-03-25T14:30:22.629Z,17.90
2023-03-25T14:33:13.771Z,18.00
2023-03-25T14:36:05.107Z,17.90
2023-03-25T14:38:58.183Z,17.90
2023-03-25T14:42:01.775Z,17.90
2023-03-25T14:47:35.416Z,17.90
2023-03-25T14:50:35.611Z,17.80
2023-03-25T14:56:10.882Z,17.80
2023-03-25T14:59:05.221Z,17.90
2023-03-25T15:01:58.383Z,18.10
2023-03-25T15:04:55.184Z,18.20
2023-03-25T15:10:28.143Z,18.20
2023-03-25T15:16:04.694Z,18.10
2023-03-25T15:19:11.791Z,18.00
2023-03-25T15:25:06.204Z,17.90
2023-03-25T15:28:14.651Z,17.90
2023-03-25T15:31:14.823Z,17.80
2023-03-25T15:34:16.177Z,17.80
2023-03-25T15:37:30.433Z,17.70
2023-03-25T15:40:32.695Z,17.60
2023-03-25T15:46:22.433Z,17.50
2023-03-25T15:49:38.807Z,17.50
2023-03-25T15:52:40.574Z,17.50
2023-03-25T15:55:34.843Z,17.50
2023-03-25T16:01:16.301Z,17.60
2023-03-25T16:04:10.566Z,18.00
2023-03-25T16:07:04.298Z,18.50
2023-03-25T16:09:55.543Z,18.60
2023-03-25T16:15:30.732Z,18.20
2023-03-25T16:18:24.415Z,18.10
2023-03-25T16:21:16.568Z,18.00
2023-03-25T16:24:11.306Z,17.90
2023-03-25T16:27:11.337Z,17.90
2023-03-25T16:30:02.595Z,18.00
2023-03-25T16:32:54.388Z,18.10
2023-03-25T16:35:48.161Z,18.00
2023-03-25T16:38:39.538Z,17.90
2023-03-25T16:41:31.826Z,17.60
2023-03-25T16:44:26.446Z,17.50
2023-03-25T16:50:01.527Z,17.30
2023-03-25T16:55:36.776Z,17.10
2023-03-25T17:01:10.017Z,17.00
2023-03-25T17:04:12.357Z,16.90
2023-03-25T17:07:08.541Z,16.80
2023-03-25T17:12:40.490Z,16.60
2023-03-25T17:15:34.822Z,16.60
2023-03-25T17:18:29.789Z,16.60
2023-03-25T17:21:27.299Z,16.40
2023-03-25T17:24:25.622Z,16.30
2023-03-25T17:30:03.869Z,16.20
2023-03-25T17:32:55.522Z,16.20
2023-03-25T17:35:49.365Z,16.10
2023-03-25T17:41:21.158Z,15.90
2023-03-25T17:44:16.018Z,15.90
2023-03-25T17:47:08.777Z,15.80
2023-03-25T17:52:39.434Z,15.70
2023-03-25T17:55:30.440Z,15.50
2023-03-25T18:01:02.908Z,15.40
2023-03-25T18:03:54.631Z,15.40
2023-03-25T18:06:46.370Z,15.40
2023-03-25T18:09:39.244Z,15.40
2023-03-25T18:15:12.054Z,15.30
2023-03-25T18:18:03.191Z,15.20
2023-03-25T18:20:56.041Z,15.20
2023-03-25T18:23:48.043Z,15.10
2023-03-25T18:26:39.173Z,15.10
2023-03-25T18:29:30.078Z,15.00
2023-03-25T18:32:21.339Z,15.00
2023-03-25T18:35:12.506Z,15.00
2023-03-25T18:38:04.459Z,15.00
2023-03-25T18:40:57.076Z,15.00
2023-03-25T18:43:48.265Z,15.00
2023-03-25T18:46:39.485Z,14.90
2023-03-25T18:49:30.859Z,14.80
2023-03-25T18:52:21.945Z,14.80
2023-03-25T18:55:13.366Z,14.70
2023-03-25T19:00:43.455Z,14.70
2023-03-25T19:03:39.447Z,14.70
2023-03-25T19:06:32.080Z,14.80
2023-03-25T19:09:23.772Z,14.80
2023-03-25T19:12:14.743Z,14.70
2023-03-25T19:15:06.873Z,14.70
2023-03-25T19:20:38.158Z,14.60
2023-03-25T19:23:29.608Z,14.60
2023-03-25T19:26:20.486Z,14.50
2023-03-25T19:29:11.723Z,14.50
2023-03-25T19:32:02.915Z,14.50
2023-03-25T19:34:57.040Z,14.50
2023-03-25T19:37:50.256Z,14.50
2023-03-25T19:40:41.270Z,14.40
2023-03-25T19:43:32.175Z,14.40
2023-03-25T19:46:23.910Z,14.20
2023-03-25T19:49:22.748Z,14.10
2023-03-25T19:52:08.431Z,14.00
2023-03-25T19:55:01.045Z,13.90
2023-03-25T20:00:31.851Z,13.60
2023-03-25T20:03:24.114Z,13.50
2023-03-25T20:06:15.601Z,13.40
2023-03-25T20:09:07.928Z,13.40
2023-03-25T20:11:58.872Z,13.40
2023-03-25T20:14:49.912Z,13.40
2023-03-25T20:17:42.051Z,13.40
2023-03-25T20:20:33.024Z,13.50
2023-03-25T20:23:23.942Z,13.50
2023-03-25T20:26:15.170Z,13.40
2023-03-25T20:29:06.114Z,13.40
2023-03-25T20:31:57.263Z,13.40
2023-03-25T20:34:48.696Z,13.40
2023-03-25T20:40:23.397Z,13.40
2023-03-25T20:45:52.884Z,13.40
2023-03-25T20:54:03.647Z,13.40
2023-03-25T20:56:55.273Z,13.50
2023-03-25T20:59:46.904Z,13.50
2023-03-25T21:02:38.399Z,13.50
2023-03-25T21:05:29.785Z,13.50
2023-03-25T21:08:22.406Z,13.40
2023-03-25T21:11:13.718Z,13.40
2023-03-25T21:14:06.000Z,13.40
2023-03-25T21:17:00.702Z,13.40
2023-03-25T21:19:59.984Z,13.40
2023-03-25T21:22:51.154Z,13.40
2023-03-25T21:25:43.649Z,13.40
2023-03-25T21:28:38.038Z,13.30
2023-03-25T21:31:31.503Z,13.20
2023-03-25T21:34:26.776Z,13.20
2023-03-25T21:37:18.151Z,13.30
2023-03-25T21:40:12.861Z,13.30
2023-03-25T21:43:09.049Z,13.20
2023-03-25T21:46:05.414Z,13.20
2023-03-25T21:48:59.374Z,13.10
2023-03-25T21:51:52.925Z,13.20
2023-03-25T21:54:44.172Z,13.30
2023-03-25T21:57:38.455Z,13.30
2023-03-25T22:00:30.268Z,13.20
2023-03-25T22:03:21.524Z,13.30
2023-03-25T22:06:15.024Z,13.20
2023-03-25T22:09:08.233Z,13.20
2023-03-25T22:11:59.719Z,13.30
2023-03-25T22:14:52.499Z,13.30
2023-03-25T22:17:43.914Z,13.20
2023-03-25T22:20:35.328Z,13.20
2023-03-25T22:23:26.789Z,13.20
2023-03-25T22:26:19.443Z,13.20
2023-03-25T22:29:13.554Z,13.20
2023-03-25T22:32:07.318Z,13.30
2023-03-25T22:34:58.618Z,13.40
2023-03-25T22:37:51.453Z,13.40
2023-03-25T22:40:42.709Z,13.30
2023-03-25T22:43:34.374Z,13.30
2023-03-25T22:46:26.026Z,13.20
2023-03-25T22:49:17.694Z,13.20
2023-03-25T22:52:09.415Z,13.20
2023-03-25T22:55:03.791Z,13.20
2023-03-25T22:57:55.055Z,13.10
2023-03-25T23:03:31.818Z,13.10
2023-03-25T23:06:24.004Z,13.30
2023-03-25T23:09:16.689Z,13.30
2023-03-25T23:12:10.090Z,13.20
2023-03-25T23:15:02.088Z,13.20
2023-03-25T23:17:53.217Z,13.20
2023-03-25T23:20:49.752Z,13.10
2023-03-25T23:23:53.298Z,13.10
2023-03-25T23:26:39.252Z,12.90
2023-03-25T23:29:30.527Z,12.90
2023-03-25T23:32:22.052Z,12.90
2023-03-25T23:35:13.209Z,12.90
2023-03-25T23:38:04.765Z,13.00
2023-03-25T23:41:02.214Z,13.10
2023-03-25T23:43:54.843Z,13.00
2023-03-25T23:46:46.573Z,12.90
2023-03-25T23:49:38.698Z,12.90
2023-03-25T23:52:30.105Z,12.90
2023-03-25T23:58:04.111Z,12.80
